Time;durP1;ratioP1;P1;durP2;ratioP2;P2;SDS_P1;SDS_P2;PMS_P1;PMS_P2;Temp;Humidity;BMP_temperature;BMP_pressure;BME280_temperature;BME280_humidity;BME280_pressure;Samples;Min_cycle;Max_cycle;Signal;HPM_P1;HPM_P2
2023/12/13 00:02:07;;;;;;;21.67;15.85;;;11.50;99.90;;;;;;5094597;28;20078;-51
2023/12/13 00:04:33;;;;;;;22.20;16.42;;;11.50;99.90;;;;;;5094618;28;20028;-53
2023/12/13 00:06:58;;;;;;;22.63;15.40;;;11.30;99.90;;;;;;5094741;28;20031;-52
2023/12/13 00:09:24;;;;;;;21.80;16.00;;;11.20;99.90;;;;;;5094677;28;20028;-52
2023/12/13 00:11:50;;;;;;;20.98;14.10;;;11.10;99.90;;;;;;5094443;28;20051;-52
2023/12/13 00:14:17;;;;;;;22.95;14.45;;;11.20;99.90;;;;;;5094418;28;20032;-53
2023/12/13 00:16:43;;;;;;;21.48;13.57;;;11.30;99.90;;;;;;5094594;28;20118;-51
2023/12/13 00:19:08;;;;;;;18.35;12.18;;;11.40;99.90;;;;;;5094523;28;20103;-52
2023/12/13 00:21:35;;;;;;;19.63;11.95;;;11.40;99.90;;;;;;5075026;28;20036;-54
2023/12/13 00:24:01;;;;;;;16.40;11.13;;;11.40;99.90;;;;;;5094255;28;20111;-52
2023/12/13 00:26:27;;;;;;;16.13;9.43;;;11.50;99.90;;;;;;5094172;28;20487;-51
2023/12/13 00:28:53;;;;;;;18.70;11.05;;;11.60;99.90;;;;;;5094131;28;20024;-52
2023/12/13 00:31:18;;;;;;;12.90;9.90;;;11.60;99.90;;;;;;5092720;28;20024;-53
2023/12/13 00:33:44;;;;;;;16.63;10.68;;;11.70;99.90;;;;;;5094190;28;20024;-53
2023/12/13 00:36:10;;;;;;;17.20;10.68;;;11.70;99.90;;;;;;5093739;28;20020;-53
2023/12/13 00:38:36;;;;;;;18.17;10.88;;;11.80;99.90;;;;;;5093668;28;20024;-52
2023/12/13 00:41:02;;;;;;;18.85;11.80;;;11.80;99.90;;;;;;5093877;28;20039;-52
2023/12/13 00:43:27;;;;;;;19.45;12.40;;;11.80;99.90;;;;;;5094170;28;20035;-52
2023/12/13 00:45:53;;;;;;;18.20;12.18;;;11.80;99.90;;;;;;5093843;28;20051;-52
2023/12/13 00:48:19;;;;;;;18.33;12.40;;;11.80;99.90;;;;;;5074416;28;20119;-53
2023/12/13 00:50:45;;;;;;;16.45;11.63;;;11.80;99.90;;;;;;5091498;28;20062;-51
2023/12/13 00:53:12;;;;;;;12.40;9.60;;;11.90;99.90;;;;;;5093644;28;20024;-53
2023/12/13 00:55:38;;;;;;;14.82;9.40;;;11.90;99.90;;;;;;5091386;28;20043;-52
2023/12/13 00:58:04;;;;;;;16.67;10.27;;;11.90;99.90;;;;;;5093512;28;20077;-53
2023/12/13 01:00:30;;;;;;;12.93;9.27;;;11.90;99.90;;;;;;5093674;28;20020;-52
2023/12/13 01:02:56;;;;;;;14.02;9.35;;;11.90;99.90;;;;;;5093672;28;20483;-52
2023/12/13 01:05:21;;;;;;;13.75;9.00;;;11.80;99.90;;;;;;5074299;28;20036;-53
2023/12/13 01:07:47;;;;;;;15.02;10.27;;;11.90;99.90;;;;;;5074343;28;20514;-52
2023/12/13 01:10:32;;;;;;;14.75;9.65;;;11.90;99.90;;;;;;5092114;28;20036;-53
2023/12/13 01:13:16;;;;;;;16.40;10.70;;;11.90;99.90;;;;;;5054299;28;20047;-53
2023/12/13 01:16:00;;;;;;;15.50;10.32;;;11.90;99.90;;;;;;5073127;28;20047;-51
2023/12/13 01:21:30;;;;;;;15.05;9.50;;;12.00;99.90;;;;;;5060146;28;20509;-53
2023/12/13 01:23:56;;;;;;;12.05;8.77;;;12.00;99.90;;;;;;5071795;28;20029;-53
2023/12/13 01:26:22;;;;;;;16.10;11.38;;;12.10;99.90;;;;;;5033074;28;20045;-53
2023/12/13 01:29:24;;;;;;;16.15;11.05;;;12.00;99.90;;;;;;5050502;28;20619;-51
2023/12/13 01:31:50;;;;;;;14.63;9.30;;;11.80;99.90;;;;;;5050254;28;20492;-52
2023/12/13 01:34:16;;;;;;;13.75;9.10;;;11.80;99.90;;;;;;5050384;28;20111;-53
2023/12/13 01:36:42;;;;;;;16.20;10.52;;;11.70;99.90;;;;;;5050045;28;20036;-51
2023/12/13 01:39:08;;;;;;;16.65;10.25;;;11.80;99.90;;;;;;5050304;28;20021;-53
2023/12/13 01:41:34;;;;;;;17.00;11.27;;;11.80;99.90;;;;;;5049918;28;20044;-52
2023/12/13 01:44:00;;;;;;;16.08;10.80;;;11.90;99.90;;;;;;5050176;28;20048;-52
2023/12/13 01:46:26;;;;;;;16.17;11.90;;;11.90;99.90;;;;;;5049863;28;20501;-52
2023/12/13 01:48:51;;;;;;;18.52;11.98;;;11.90;99.90;;;;;;5049216;28;20033;-52
2023/12/13 01:51:18;;;;;;;16.00;10.10;;;11.90;99.90;;;;;;5049936;28;20037;-53
2023/12/13 01:53:44;;;;;;;15.60;11.43;;;11.80;99.90;;;;;;5049882;28;20655;-51
2023/12/13 01:56:12;;;;;;;18.40;11.75;;;11.90;99.90;;;;;;5049862;28;20104;-52
2023/12/13 01:58:38;;;;;;;17.25;10.98;;;11.90;99.90;;;;;;5072141;28;20526;-52
2023/12/13 02:01:06;;;;;;;15.57;10.75;;;11.80;99.90;;;;;;5072131;28;20476;-53
2023/12/13 02:03:33;;;;;;;18.33;11.65;;;11.70;99.90;;;;;;5072480;28;20028;-51
2023/12/13 02:06:01;;;;;;;13.38;8.93;;;11.70;99.90;;;;;;5072172;28;20035;-53
2023/12/13 02:08:27;;;;;;;14.43;9.88;;;11.70;99.90;;;;;;5071994;28;20032;-52
2023/12/13 02:10:53;;;;;;;13.10;9.30;;;11.70;99.90;;;;;;5072142;28;20029;-53
2023/12/13 02:13:18;;;;;;;12.25;8.43;;;11.70;99.90;;;;;;5072408;28;20029;-53
2023/12/13 02:15:45;;;;;;;13.77;9.80;;;11.70;99.90;;;;;;5071908;28;20028;-53
2023/12/13 02:18:11;;;;;;;15.60;11.20;;;11.60;99.90;;;;;;5072189;28;20032;-52
2023/12/13 02:20:37;;;;;;;15.20;10.95;;;11.60;99.90;;;;;;5072027;28;20348;-51
2023/12/13 02:23:03;;;;;;;18.52;10.70;;;11.60;99.90;;;;;;5053127;28;20043;-52
2023/12/13 02:25:52;;;;;;;15.63;10.43;;;11.50;99.90;;;;;;5072000;28;20037;-53
2023/12/13 02:28:18;;;;;;;14.98;9.35;;;11.50;99.90;;;;;;5071673;28;20048;-51
2023/12/13 02:30:46;;;;;;;13.77;9.45;;;11.50;99.90;;;;;;5072044;28;20056;-53
2023/12/13 02:33:11;;;;;;;13.63;8.77;;;11.50;99.90;;;;;;5071651;28;20467;-52
2023/12/13 02:35:37;;;;;;;14.65;9.20;;;11.50;99.90;;;;;;5071613;28;20025;-53
2023/12/13 02:38:03;;;;;;;12.52;8.75;;;11.60;99.90;;;;;;5071882;28;20024;-52
2023/12/13 02:40:29;;;;;;;12.55;8.02;;;11.60;99.90;;;;;;5052870;28;20063;-52
2023/12/13 02:42:55;;;;;;;10.90;8.05;;;11.70;99.90;;;;;;5071601;28;20071;-52
2023/12/13 02:45:20;;;;;;;11.82;7.63;;;11.70;99.90;;;;;;5072019;28;20033;-52
2023/12/13 02:47:49;;;;;;;13.00;7.40;;;11.70;99.90;;;;;;5071513;28;20036;-52
2023/12/13 02:50:15;;;;;;;10.63;8.10;;;11.80;99.90;;;;;;5071621;28;20043;-51
2023/12/13 02:52:41;;;;;;;12.43;8.73;;;11.80;99.90;;;;;;5070112;28;20032;-53
2023/12/13 02:55:11;;;;;;;10.20;7.20;;;11.70;99.90;;;;;;5052764;28;20039;-52
2023/12/13 02:57:40;;;;;;;12.00;7.20;;;11.70;99.90;;;;;;5071568;28;20012;-52
2023/12/13 03:00:06;;;;;;;9.50;6.57;;;11.70;99.90;;;;;;5072554;28;20715;-51
2023/12/13 03:02:32;;;;;;;10.00;7.80;;;11.80;99.90;;;;;;5039837;28;20119;-52
2023/12/13 03:05:01;;;;;;;9.85;6.60;;;11.80;99.90;;;;;;5075846;28;20115;-53
2023/12/13 03:07:27;;;;;;;8.73;5.03;;;11.90;99.90;;;;;;5075383;28;20032;-51
2023/12/13 03:09:53;;;;;;;8.43;6.25;;;12.00;99.90;;;;;;5075681;28;20028;-52
2023/12/13 03:12:19;;;;;;;9.73;6.43;;;12.00;99.90;;;;;;5075673;28;20020;-51
2023/12/13 03:14:44;;;;;;;7.32;5.45;;;12.20;99.90;;;;;;5075425;28;20024;-51
2023/12/13 03:17:10;;;;;;;8.30;5.53;;;12.30;99.90;;;;;;5056486;28;20094;-52
2023/12/13 03:19:36;;;;;;;7.05;4.55;;;12.30;99.90;;;;;;5075388;28;20036;-51
2023/12/13 03:22:02;;;;;;;6.53;4.85;;;12.40;99.90;;;;;;5075430;28;20032;-51
2023/12/13 03:24:28;;;;;;;10.38;6.50;;;12.40;99.90;;;;;;5075090;28;20036;-51
2023/12/13 03:26:54;;;;;;;7.25;5.63;;;;;;;;;;5074945;28;20097;-52
2023/12/13 03:29:20;;;;;;;6.78;5.25;;;12.60;99.90;;;;;;5075273;28;20032;-52
2023/12/13 03:31:46;;;;;;;8.52;5.28;;;12.60;99.90;;;;;;5056192;28;20086;-51
2023/12/13 03:34:14;;;;;;;9.35;6.65;;;12.60;99.90;;;;;;5075298;28;20044;-51
2023/12/13 03:36:40;;;;;;;13.50;10.45;;;;;;;;;;5075184;28;20032;-51
2023/12/13 03:39:07;;;;;;;20.15;13.48;;;12.80;99.90;;;;;;5074895;28;20032;-52
2023/12/13 03:41:33;;;;;;;14.88;10.65;;;12.90;99.90;;;;;;5074908;28;20036;-51
2023/12/13 03:43:59;;;;;;;8.93;6.05;;;;;;;;;;5075321;28;20032;-51
2023/12/13 03:46:25;;;;;;;7.40;5.00;;;;;;;;;;5074643;28;20060;-51
2023/12/13 03:48:51;;;;;;;7.93;5.00;;;13.10;99.90;;;;;;5056016;28;20123;-52
2023/12/13 03:51:17;;;;;;;8.05;5.85;;;13.10;99.90;;;;;;5074926;28;20132;-51
2023/12/13 03:53:43;;;;;;;8.45;5.78;;;12.90;99.90;;;;;;5074798;28;20090;-51
2023/12/13 03:56:09;;;;;;;8.55;5.88;;;12.70;99.90;;;;;;5074579;28;20031;-51
2023/12/13 03:58:36;;;;;;;9.00;6.00;;;12.80;99.90;;;;;;5074616;28;20034;-53
2023/12/13 04:01:02;;;;;;;8.48;5.72;;;12.80;99.90;;;;;;5038721;28;20029;-52
2023/12/13 04:03:28;;;;;;;11.07;7.10;;;12.80;99.90;;;;;;5038865;28;20135;-52
2023/12/13 04:05:54;;;;;;;11.35;6.28;;;12.80;99.90;;;;;;5074450;28;20056;-52
2023/12/13 04:08:19;;;;;;;9.93;6.30;;;12.80;99.90;;;;;;5074234;28;20043;-52
2023/12/13 04:10:45;;;;;;;11.63;6.55;;;12.90;99.90;;;;;;5055515;28;20033;-53
2023/12/13 04:13:11;;;;;;;10.95;7.97;;;12.90;99.90;;;;;;5073618;28;20032;-51
2023/12/13 04:15:36;;;;;;;9.63;7.38;;;12.80;99.90;;;;;;5074265;28;20052;-50
2023/12/13 04:18:03;;;;;;;16.38;11.05;;;12.80;99.90;;;;;;5055206;28;20067;-52
2023/12/13 04:20:29;;;;;;;18.85;11.40;;;12.80;99.90;;;;;;5074366;28;20036;-52
2023/12/13 04:22:55;;;;;;;37.30;20.20;;;12.70;99.90;;;;;;5074260;28;20016;-51
2023/12/13 04:25:20;;;;;;;85.85;41.83;;;12.70;99.90;;;;;;5074021;28;20535;-51
2023/12/13 04:27:47;;;;;;;19.45;11.27;;;;;;;;;;5073847;28;20052;-50
2023/12/13 04:30:13;;;;;;;10.27;7.35;;;12.80;99.90;;;;;;5073931;28;20086;-54
2023/12/13 04:32:39;;;;;;;9.60;7.45;;;12.90;99.90;;;;;;5073835;28;20056;-52
2023/12/13 04:35:09;;;;;;;9.48;6.75;;;12.80;99.90;;;;;;5074193;28;20024;-53
2023/12/13 04:37:36;;;;;;;9.23;6.18;;;12.90;99.90;;;;;;5055579;28;20044;-52
2023/12/13 04:40:03;;;;;;;8.55;6.43;;;12.90;99.90;;;;;;5073836;28;20491;-52
2023/12/13 04:42:28;;;;;;;10.40;6.68;;;13.00;99.90;;;;;;5073925;28;20060;-52
2023/12/13 04:44:54;;;;;;;14.35;9.63;;;12.90;99.90;;;;;;5073942;28;20062;-51
2023/12/13 04:47:20;;;;;;;14.93;10.27;;;12.90;99.90;;;;;;5073525;28;20082;-53
2023/12/13 04:49:46;;;;;;;14.80;11.82;;;12.80;99.90;;;;;;5054866;28;20037;-51
2023/12/13 04:52:12;;;;;;;14.73;10.07;;;;;;;;;;5073421;28;20141;-52
2023/12/13 04:54:38;;;;;;;12.07;8.80;;;12.90;99.90;;;;;;5073374;28;20537;-52
2023/12/13 04:57:05;;;;;;;14.50;8.63;;;;;;;;;;5073593;28;20036;-51
2023/12/13 04:59:31;;;;;;;13.25;9.70;;;;;;;;;;5073292;28;20392;-53
2023/12/13 05:01:57;;;;;;;33.15;18.25;;;;;;;;;;5073260;28;20025;-53
2023/12/13 05:04:23;;;;;;;20.38;13.02;;;12.90;99.90;;;;;;5073024;28;20043;-52
2023/12/13 05:06:48;;;;;;;20.30;13.43;;;13.00;99.90;;;;;;5081833;28;20028;-50
2023/12/13 05:09:15;;;;;;;14.80;10.63;;;12.90;99.90;;;;;;5093011;28;20089;-53
2023/12/13 05:11:41;;;;;;;15.07;10.43;;;12.70;99.90;;;;;;5082277;28;20032;-51
2023/12/13 05:14:07;;;;;;;15.55;11.32;;;;;;;;;;5078638;28;20090;-51
2023/12/13 05:16:33;;;;;;;18.98;11.95;;;;;;;;;;5084644;28;20115;-53
2023/12/13 05:19:00;;;;;;;18.23;12.90;;;12.40;99.90;;;;;;5085069;28;20024;-51
2023/12/13 05:21:25;;;;;;;20.33;16.23;;;12.40;99.90;;;;;;5072610;28;20097;-52
2023/12/13 05:23:51;;;;;;;18.08;12.40;;;12.30;99.90;;;;;;5079440;28;20521;-52
2023/12/13 05:26:17;;;;;;;18.77;13.00;;;12.20;99.90;;;;;;5093163;28;20111;-52
2023/12/13 05:28:43;;;;;;;17.45;11.98;;;12.40;99.90;;;;;;5076233;28;20501;-53
2023/12/13 05:31:29;;;;;;;16.40;12.23;;;12.00;99.90;;;;;;5092788;28;20382;-51
2023/12/13 05:33:55;;;;;;;20.40;12.55;;;12.00;99.90;;;;;;5092749;28;20036;-50
2023/12/13 05:36:20;;;;;;;20.63;14.13;;;12.20;99.90;;;;;;5093093;28;20127;-53
2023/12/13 05:38:46;;;;;;;29.00;15.90;;;12.20;99.90;;;;;;5087662;28;20428;-52
2023/12/13 05:41:13;;;;;;;19.10;13.73;;;12.10;99.90;;;;;;5037096;28;20598;-53
2023/12/13 05:43:39;;;;;;;11.63;8.75;;;;;;;;;;5070317;28;20055;-51
2023/12/13 05:46:05;;;;;;;19.65;13.18;;;;;;;;;;5072534;28;20490;-51
2023/12/13 05:48:31;;;;;;;29.13;17.00;;;12.00;99.90;;;;;;5071999;28;20040;-51
2023/12/13 05:50:58;;;;;;;18.10;11.70;;;12.30;99.90;;;;;;5075093;28;20410;-51
2023/12/13 05:53:24;;;;;;;12.82;6.60;;;;;;;;;;5082465;28;20024;-51
2023/12/13 05:55:50;;;;;;;12.32;8.70;;;;;;;;;;5081153;28;20480;-51
2023/12/13 05:58:16;;;;;;;12.52;8.52;;;12.30;99.90;;;;;;5081445;28;20031;-51
2023/12/13 06:00:42;;;;;;;12.88;7.38;;;12.40;99.90;;;;;;5080525;28;20103;-52
2023/12/13 06:03:07;;;;;;;14.27;10.00;;;12.40;99.90;;;;;;5080523;28;20024;-52
2023/12/13 06:05:33;;;;;;;11.05;8.10;;;12.40;99.90;;;;;;5086691;28;20035;-51
2023/12/13 06:07:59;;;;;;;10.52;7.13;;;12.50;99.90;;;;;;5092471;28;20085;-52
2023/12/13 06:10:25;;;;;;;11.68;5.40;;;12.60;99.90;;;;;;5092081;28;20073;-52
2023/12/13 06:12:52;;;;;;;11.70;6.97;;;12.70;99.90;;;;;;5083811;28;20111;-52
2023/12/13 06:15:19;;;;;;;6.60;4.53;;;12.70;99.90;;;;;;5090088;28;20483;-51
2023/12/13 06:17:44;;;;;;;7.45;5.47;;;12.70;99.90;;;;;;5092308;28;20016;-52
2023/12/13 06:20:10;;;;;;;11.82;7.70;;;12.60;99.90;;;;;;5092172;28;20035;-51
2023/12/13 06:22:36;;;;;;;9.10;5.80;;;12.70;99.90;;;;;;5092009;28;20031;-51
2023/12/13 06:25:02;;;;;;;6.45;4.28;;;12.70;99.90;;;;;;5071226;28;20029;-52
2023/12/13 06:27:28;;;;;;;8.38;5.15;;;12.60;99.90;;;;;;5083183;28;20052;-52
2023/12/13 06:29:54;;;;;;;7.95;5.38;;;12.70;99.90;;;;;;5083613;28;20172;-52
2023/12/13 06:32:20;;;;;;;5.28;3.42;;;12.80;99.90;;;;;;5086930;28;20021;-51
2023/12/13 06:34:46;;;;;;;8.10;4.05;;;12.80;99.90;;;;;;5080105;28;20028;-51
2023/12/13 06:37:12;;;;;;;7.00;3.95;;;12.90;99.90;;;;;;5078202;28;20035;-51
2023/12/13 06:39:38;;;;;;;6.30;3.85;;;12.90;99.90;;;;;;5071495;28;20040;-52
2023/12/13 06:42:10;;;;;;;6.20;4.25;;;13.00;99.90;;;;;;5085996;28;20043;-51
2023/12/13 06:44:38;;;;;;;;;;;13.00;99.90;;;;;;5092303;28;20068;-52
2023/12/13 06:47:05;;;;;;;8.38;4.57;;;13.00;99.90;;;;;;5091864;28;19911;-52
2023/12/13 06:49:34;;;;;;;7.65;4.32;;;13.00;99.90;;;;;;5092198;28;20029;-52
2023/12/13 06:52:00;;;;;;;6.75;3.85;;;13.00;99.90;;;;;;5092013;28;20032;-53
2023/12/13 06:54:28;;;;;;;5.35;3.63;;;13.10;99.90;;;;;;5091860;28;20024;-52
2023/12/13 06:56:54;;;;;;;7.95;4.43;;;13.10;99.90;;;;;;5091669;28;20035;-52
2023/12/13 06:59:20;;;;;;;6.72;4.43;;;13.20;99.90;;;;;;5092186;28;20016;-53
2023/12/13 07:01:46;;;;;;;6.95;4.70;;;;;;;;;;5091573;28;20118;-54
2023/12/13 07:04:12;;;;;;;9.75;5.80;;;;;;;;;;5091857;28;20035;-50
2023/12/13 07:06:38;;;;;;;9.50;6.03;;;;;;;;;;5091625;28;20475;-52
2023/12/13 07:09:05;;;;;;;8.07;4.90;;;13.10;99.90;;;;;;5091760;28;20467;-51
2023/12/13 07:11:31;;;;;;;8.07;5.88;;;13.00;99.90;;;;;;5091773;28;20032;-52
2023/12/13 07:13:57;;;;;;;9.00;5.85;;;;;;;;;;5091582;28;20024;-51
2023/12/13 07:16:23;;;;;;;10.57;5.60;;;;;;;;;;5072503;28;20138;-52
2023/12/13 07:18:49;;;;;;;8.40;6.45;;;;;;;;;;5091552;28;20024;-51
2023/12/13 07:21:15;;;;;;;8.98;4.90;;;13.10;99.90;;;;;;5091883;28;20024;-50
2023/12/13 07:23:40;;;;;;;11.10;6.80;;;13.10;99.90;;;;;;5072579;28;20458;-51
2023/12/13 07:26:07;;;;;;;9.02;5.25;;;13.10;99.90;;;;;;5072170;28;20170;-51
2023/12/13 07:28:32;;;;;;;12.52;7.28;;;13.10;99.90;;;;;;5091320;28;20043;-51
2023/12/13 07:31:04;;;;;;;7.00;4.43;;;13.10;99.90;;;;;;5091696;28;20024;-52
2023/12/13 07:33:38;;;;;;;6.32;4.45;;;13.20;99.90;;;;;;5091685;28;20054;-51
2023/12/13 07:36:04;;;;;;;6.30;4.78;;;13.20;99.90;;;;;;5091395;28;20043;-51
2023/12/13 07:38:30;;;;;;;7.00;4.82;;;13.30;99.90;;;;;;5091531;28;20475;-52
2023/12/13 07:40:56;;;;;;;8.15;4.97;;;13.30;99.90;;;;;;5091836;28;20029;-51
2023/12/13 07:43:22;;;;;;;8.73;5.60;;;;;;;;;;5091346;28;20475;-52
2023/12/13 07:45:51;;;;;;;6.45;4.85;;;13.30;99.90;;;;;;5091450;28;20035;-52
2023/12/13 07:48:23;;;;;;;6.72;4.82;;;13.30;99.90;;;;;;5094551;28;20039;-51
2023/12/13 07:50:49;;;;;;;6.28;4.88;;;13.40;99.90;;;;;;5095131;28;20477;-51
2023/12/13 07:53:15;;;;;;;6.97;5.15;;;13.40;99.90;;;;;;5042176;28;20056;-51
2023/12/13 07:55:41;;;;;;;9.00;5.57;;;;;;;;;;5093575;28;20066;-52
2023/12/13 07:58:08;;;;;;;10.80;5.90;;;;;;;;;;5087192;28;20031;-51
2023/12/13 08:00:35;;;;;;;10.40;6.57;;;;;;;;;;5085025;28;20112;-52
2023/12/13 08:03:01;;;;;;;10.93;6.47;;;;;;;;;;5083546;28;20032;-51
2023/12/13 08:05:27;;;;;;;13.73;8.27;;;;;;;;;;5082309;28;20020;-52
2023/12/13 08:07:53;;;;;;;12.20;7.35;;;;;;;;;;5077273;28;20050;-52
2023/12/13 08:10:19;;;;;;;10.88;7.22;;;;;;;;;;5085846;28;20116;-51
2023/12/13 08:12:45;;;;;;;11.02;6.35;;;;;;;;;;5075778;28;20040;-52
2023/12/13 08:15:11;;;;;;;10.30;5.63;;;;;;;;;;5088910;28;20024;-52
2023/12/13 08:17:38;;;;;;;9.50;5.70;;;;;;;;;;5080768;28;20025;-52
2023/12/13 08:20:06;;;;;;;10.45;5.18;;;;;;;;;;5079786;28;20118;-52
2023/12/13 08:22:32;;;;;;;11.13;5.78;;;;;;;;;;5060412;28;20040;-51
2023/12/13 08:24:58;;;;;;;8.38;5.90;;;;;;;;;;5072658;28;20032;-51
2023/12/13 08:27:24;;;;;;;8.82;5.82;;;;;;;;;;5084586;28;20040;-51
2023/12/13 08:29:50;;;;;;;8.48;6.05;;;;;;;;;;5083434;28;20032;-52
2023/12/13 08:32:16;;;;;;;9.75;6.35;;;;;;;;;;5072238;28;20140;-51
2023/12/13 08:34:44;;;;;;;9.55;5.72;;;;;;;;;;5083057;28;20020;-50
2023/12/13 08:37:10;;;;;;;12.45;7.45;;;13.30;99.90;;;;;;5082773;28;20392;-51
2023/12/13 08:39:36;;;;;;;11.20;6.97;;;13.40;99.90;;;;;;5083156;28;20020;-52
2023/12/13 08:42:01;;;;;;;10.63;7.47;;;13.50;99.90;;;;;;5084745;28;20467;-51
2023/12/13 08:44:27;;;;;;;11.70;7.78;;;13.40;99.90;;;;;;5073446;28;20036;-51
2023/12/13 08:46:53;;;;;;;15.65;9.05;;;13.40;99.90;;;;;;5084610;28;20467;-51
2023/12/13 08:49:19;;;;;;;8.88;6.85;;;13.40;99.90;;;;;;5080200;28;20060;-51
2023/12/13 08:51:46;;;;;;;8.70;6.55;;;13.50;99.90;;;;;;5081375;28;20424;-51
2023/12/13 08:54:12;;;;;;;10.95;7.53;;;13.50;99.90;;;;;;5083415;28;20487;-53
2023/12/13 08:56:38;;;;;;;11.07;7.82;;;13.50;99.90;;;;;;5080599;28;20044;-54
2023/12/13 08:59:04;;;;;;;12.52;8.00;;;13.60;99.90;;;;;;5078609;28;20020;-53
2023/12/13 09:01:29;;;;;;;15.43;8.82;;;13.60;99.90;;;;;;5081435;28;20042;-53
2023/12/13 09:03:55;;;;;;;15.32;10.52;;;13.60;99.90;;;;;;5078269;28;20415;-50
2023/12/13 09:06:21;;;;;;;12.18;8.60;;;;;;;;;;5065314;28;20044;-51
2023/12/13 09:08:47;;;;;;;11.65;7.60;;;;;;;;;;5053927;28;20048;-52
2023/12/13 09:11:13;;;;;;;14.25;7.65;;;13.80;99.90;;;;;;5081000;28;20111;-54
2023/12/13 09:13:39;;;;;;;15.32;8.32;;;;;;;;;;5079896;28;20121;-52
2023/12/13 09:16:05;;;;;;;20.55;10.00;;;14.10;99.90;;;;;;5079165;28;20028;-51
2023/12/13 09:18:31;;;;;;;17.63;10.75;;;14.00;99.90;;;;;;5040754;28;20483;-53
2023/12/13 09:20:57;;;;;;;16.40;10.20;;;14.10;99.90;;;;;;5093776;28;20153;-51
2023/12/13 09:23:23;;;;;;;17.60;10.95;;;14.10;99.90;;;;;;5093369;28;20047;-53
2023/12/13 09:25:50;;;;;;;14.77;9.15;;;14.20;99.90;;;;;;5093290;28;20107;-52
2023/12/13 09:28:16;;;;;;;19.40;11.82;;;14.30;99.90;;;;;;5082019;28;20612;-51
2023/12/13 09:30:42;;;;;;;30.70;20.67;;;14.40;99.90;;;;;;5083563;28;20031;-50
2023/12/13 09:33:11;;;;;;;25.15;20.55;;;14.50;99.90;;;;;;5084045;28;20462;-50
2023/12/13 09:35:39;;;;;;;20.88;17.23;;;14.60;99.90;;;;;;5085009;28;20036;-52
2023/12/13 09:38:05;;;;;;;26.08;18.48;;;14.60;99.90;;;;;;5076271;28;20035;-51
2023/12/13 09:40:31;;;;;;;24.45;17.42;;;14.70;99.90;;;;;;5072685;28;20103;-52
2023/12/13 09:42:57;;;;;;;19.85;13.05;;;14.70;99.90;;;;;;5072496;28;20086;-53
2023/12/13 09:45:23;;;;;;;20.55;14.05;;;14.70;99.90;;;;;;5072341;28;20095;-54
2023/12/13 09:47:51;;;;;;;17.33;11.60;;;14.80;99.90;;;;;;5072833;28;20098;-52
2023/12/13 09:50:18;;;;;;;18.45;11.90;;;14.70;99.90;;;;;;5072643;28;20597;-50
2023/12/13 09:52:44;;;;;;;13.55;10.13;;;14.80;99.90;;;;;;5072266;28;20051;-54
2023/12/13 09:55:11;;;;;;;12.75;9.90;;;14.80;99.90;;;;;;5074292;28;20045;-51
2023/12/13 09:57:37;;;;;;;15.65;8.48;;;14.90;99.90;;;;;;5087140;28;20082;-51
2023/12/13 10:00:05;;;;;;;12.70;9.10;;;14.90;99.90;;;;;;5091688;28;20020;-52
2023/12/13 10:02:31;;;;;;;11.63;8.38;;;15.00;99.90;;;;;;5090559;28;20035;-51
2023/12/13 10:05:01;;;;;;;11.57;9.52;;;15.00;99.90;;;;;;5077430;28;20021;-52
2023/12/13 10:07:29;;;;;;;11.57;9.13;;;15.10;99.90;;;;;;5016734;28;20053;-54
2023/12/13 10:09:55;;;;;;;11.80;8.52;;;15.10;99.90;;;;;;5044986;28;20530;-53
2023/12/13 10:12:24;;;;;;;11.75;9.45;;;15.10;99.90;;;;;;5015049;28;20044;-54
2023/12/13 10:14:49;;;;;;;10.45;8.38;;;15.20;99.90;;;;;;5029642;28;20165;-53
2023/12/13 10:17:20;;;;;;;11.90;8.50;;;15.20;99.90;;;;;;5047032;28;20033;-53
2023/12/13 10:19:47;;;;;;;10.85;8.65;;;;;;;;;;5049449;28;20051;-52
2023/12/13 10:22:13;;;;;;;15.32;10.10;;;;;;;;;;5049527;28;20400;-50
2023/12/13 10:24:41;;;;;;;12.80;8.60;;;;;;;;;;5049418;28;20068;-51
2023/12/13 10:27:07;;;;;;;12.57;8.13;;;;;;;;;;5042229;28;20048;-51
2023/12/13 10:29:33;;;;;;;13.13;8.93;;;;;;;;;;5032622;28;20505;-51
2023/12/13 10:32:00;;;;;;;10.43;8.48;;;15.90;99.90;;;;;;5030402;28;20702;-50
2023/12/13 10:34:27;;;;;;;12.95;8.45;;;;;;;;;;5049140;28;20041;-54
2023/12/13 10:36:54;;;;;;;10.68;8.43;;;;;;;;;;5049335;28;20057;-52
2023/12/13 10:39:25;;;;;;;11.27;7.72;;;16.50;99.90;;;;;;5081087;28;20566;-54
2023/12/13 10:41:56;;;;;;;12.10;8.93;;;16.50;99.90;;;;;;5090540;28;20119;-54
2023/12/13 10:44:23;;;;;;;14.98;8.80;;;16.60;99.90;;;;;;5072618;28;20035;-50
2023/12/13 10:46:56;;;;;;;13.05;8.98;;;16.70;99.90;;;;;;5092056;28;20032;-55
2023/12/13 10:49:23;;;;;;;16.20;11.07;;;;;;;;;;5090497;28;20043;-55
2023/12/13 10:51:50;;;;;;;127.57;20.02;;;;;;;;;;5091815;28;20035;-53
2023/12/13 10:54:16;;;;;;;45.55;13.20;;;;;;;;;;5091834;28;20459;-55
2023/12/13 10:56:43;;;;;;;38.15;15.90;;;;;;;;;;5068817;28;20041;-53
2023/12/13 10:59:09;;;;;;;22.90;13.55;;;;;;;;;;5069208;28;20033;-52
2023/12/13 11:01:39;;;;;;;80.82;16.17;;;17.00;99.90;;;;;;5069048;28;20060;-53
2023/12/13 11:04:12;;;;;;;22.98;10.82;;;17.00;99.90;;;;;;5069118;28;20082;-53
2023/12/13 11:06:38;;;;;;;14.93;10.13;;;17.10;99.90;;;;;;5057307;28;20040;-51
2023/12/13 11:09:10;;;;;;;16.45;9.20;;;17.10;99.90;;;;;;5057552;28;20060;-53
2023/12/13 11:11:36;;;;;;;;;;;17.10;99.90;;;;;;5057546;28;20098;-53
2023/12/13 11:14:02;;;;;;;10.45;8.10;;;17.20;99.90;;;;;;5064039;28;19908;-53
2023/12/13 11:16:28;;;;;;;28.52;20.15;;;17.10;99.90;;;;;;5068995;28;20066;-51
2023/12/13 11:18:57;;;;;;;18.90;12.90;;;17.20;99.90;;;;;;5040063;28;20041;-53
2023/12/13 11:21:31;;;;;;;20.65;13.48;;;17.30;99.90;;;;;;5066304;28;20037;-53
2023/12/13 11:24:11;;;;;;;39.03;23.48;;;17.40;99.90;;;;;;5071791;28;20162;-51
2023/12/13 11:26:42;;;;;;;25.88;16.88;;;17.50;99.90;;;;;;5023274;28;20049;-55
2023/12/13 11:29:34;;;;;;;22.80;16.85;;;17.70;99.90;;;;;;5094579;28;20466;-52
2023/12/13 11:32:02;;;;;;;26.95;19.35;;;17.80;99.90;;;;;;5092480;28;20123;-53
2023/12/13 11:34:34;;;;;;;18.23;11.88;;;17.70;99.90;;;;;;5058508;28;20032;-50
2023/12/13 11:37:02;;;;;;;15.00;9.35;;;17.80;99.90;;;;;;5085592;28;20037;-52
2023/12/13 11:39:32;;;;;;;18.02;11.55;;;;;;;;;;5075058;28;20025;-51
2023/12/13 11:41:58;;;;;;;19.80;13.18;;;;;;;;;;5083185;28;20031;-50
2023/12/13 11:44:32;;;;;;;16.85;11.52;;;;;;;;;;5082441;28;20643;-49
2023/12/13 11:47:10;;;;;;;13.75;8.57;;;;;;;;;;5085145;28;20036;-50
2023/12/13 11:49:40;;;;;;;36.95;25.40;;;18.10;99.90;;;;;;5073716;28;20082;-50
2023/12/13 11:52:07;;;;;;;25.15;20.20;;;18.20;99.90;;;;;;5073792;28;20029;-49
2023/12/13 11:54:35;;;;;;;50.88;45.63;;;18.10;99.90;;;;;;5073451;28;20430;-54
2023/12/13 11:57:04;;;;;;;31.42;20.80;;;17.90;99.90;;;;;;5090500;28;20031;-50
2023/12/13 11:59:29;;;;;;;21.88;17.98;;;18.00;99.90;;;;;;5080375;28;20028;-51
2023/12/13 12:01:55;;;;;;;20.50;16.58;;;18.00;99.90;;;;;;5089481;28;20428;-50
2023/12/13 12:04:23;;;;;;;24.98;15.98;;;18.10;99.90;;;;;;5074336;28;20047;-55
2023/12/13 12:06:51;;;;;;;23.23;15.82;;;18.10;99.90;;;;;;5093718;28;20662;-53
2023/12/13 12:09:21;;;;;;;24.30;18.05;;;18.20;99.90;;;;;;5090255;28;20043;-51
2023/12/13 12:11:52;;;;;;;19.38;15.82;;;18.10;99.90;;;;;;5093674;28;20028;-51
2023/12/13 12:14:18;;;;;;;109.28;66.68;;;18.10;99.90;;;;;;5074578;28;20048;-53
2023/12/13 12:16:43;;;;;;;88.60;48.25;;;18.20;99.90;;;;;;5093590;28;20441;-51
2023/12/13 12:19:10;;;;;;;31.10;17.88;;;18.20;99.90;;;;;;5093472;28;20029;-53
2023/12/13 12:21:36;;;;;;;14.73;8.88;;;18.30;99.90;;;;;;5074664;28;20078;-49
2023/12/13 12:24:02;;;;;;;55.00;25.77;;;18.40;99.90;;;;;;5080374;28;20035;-52
2023/12/13 12:26:28;;;;;;;60.13;33.45;;;18.50;99.90;;;;;;5093117;28;20048;-52
2023/12/13 12:28:54;;;;;;;101.00;44.35;;;18.60;99.90;;;;;;5084934;28;20097;-52
2023/12/13 12:31:20;;;;;;;56.38;29.75;;;18.60;99.90;;;;;;5072824;28;20042;-51
2023/12/13 12:33:53;;;;;;;34.30;16.45;;;;;;;;;;5072352;28;20036;-52
2023/12/13 12:36:19;;;;;;;40.90;21.20;;;;;;;;;;5084772;28;20419;-52
2023/12/13 12:38:48;;;;;;;47.70;23.70;;;18.90;99.90;;;;;;5089498;28;20135;-50
2023/12/13 12:41:15;;;;;;;42.50;23.30;;;18.80;99.90;;;;;;5091511;28;20043;-51
2023/12/13 12:43:40;;;;;;;96.05;52.05;;;18.90;99.90;;;;;;5073564;28;20122;-53
2023/12/13 12:46:06;;;;;;;44.20;27.48;;;18.80;99.90;;;;;;5073969;28;20127;-51
2023/12/13 12:48:33;;;;;;;35.65;24.08;;;18.90;99.90;;;;;;5072649;28;20044;-50
2023/12/13 12:50:59;;;;;;;18.58;10.40;;;18.90;99.90;;;;;;5072955;28;20119;-50
2023/12/13 12:53:25;;;;;;;30.35;19.67;;;18.90;99.90;;;;;;5072712;28;20035;-52
2023/12/13 12:55:51;;;;;;;41.60;24.83;;;;;;;;;;5072900;28;20028;-50
2023/12/13 12:58:18;;;;;;;35.20;23.63;;;19.00;99.90;;;;;;5072532;28;20033;-50